Time;durP1;ratioP1;P1;durP2;ratioP2;P2;SDS_P1;SDS_P2;PMS_P1;PMS_P2;Temp;Humidity;BMP_temperature;BMP_pressure;BME280_temperature;BME280_humidity;BME280_pressure;Samples;Min_cycle;Max_cycle;Signal;HPM_P1;HPM_P2
2024/04/11 00:01:42;;;;;;;;;;;;;;;13.77;66.55;95314.09;11363545;26;20354;-75
2024/04/11 00:06:42;;;;;;;;;;;;;;;13.74;67.31;95310.06;11373866;26;19928;-72
2024/04/11 00:11:43;;;;;;;;;;;;;;;13.61;68.92;95316.09;11372529;26;19942;-74
2024/04/11 00:16:43;;;;;;;;;;;;;;;13.58;69.77;95311.25;11347290;26;20012;-73
2024/04/11 00:21:43;;;;;;;;;;;;;;;13.45;71.33;95307.25;11405862;26;20338;-73
2024/04/11 00:26:45;;;;;;;;;;;;;;;13.47;71.59;95310.50;11373368;26;19927;-73
2024/04/11 00:31:46;;;;;;;;;;;;;;;13.44;70.83;95306.44;11405060;26;19939;-76
2024/04/11 00:36:47;;;;;;;;;;;;;;;13.54;70.91;95305.59;11405788;26;19940;-75
2024/04/11 00:41:47;;;;;;;;;;;;;;;13.54;69.78;95307.50;11277898;26;19928;-74
2024/04/11 00:46:51;;;;;;;;;;;;;;;13.26;72.29;95312.44;11249764;26;19928;-76
2024/04/11 00:51:52;;;;;;;;;;;;;;;13.01;74.06;95310.63;11253792;26;19963;-76
2024/04/11 00:56:52;;;;;;;;;;;;;;;12.87;75.81;95305.78;11250782;26;20311;-74
2024/04/11 01:01:53;;;;;;;;;;;;;;;12.80;77.11;95313.38;11251348;26;20339;-74
2024/04/11 01:07:09;;;;;;;;;;;;;;;12.85;76.56;95310.66;11251028;26;20011;-74
2024/04/11 01:12:12;;;;;;;;;;;;;;;12.85;79.26;95313.38;11253359;26;20326;-74
2024/04/11 01:17:17;;;;;;;;;;;;;;;12.78;79.92;95324.44;11255063;26;19932;-74
2024/04/11 01:22:18;;;;;;;;;;;;;;;12.40;84.27;95329.31;11249631;26;19928;-74
2024/04/11 01:27:20;;;;;;;;;;;;;;;12.31;86.32;95333.63;11249459;26;19929;-74
2024/04/11 01:32:21;;;;;;;;;;;;;;;12.34;88.46;95335.78;11251713;26;19928;-74
2024/04/11 01:37:28;;;;;;;;;;;;;;;12.33;88.97;95341.44;11248539;26;19929;-73
2024/04/11 01:42:28;;;;;;;;;;;;;;;12.22;93.36;95340.63;11247809;26;19929;-73
2024/04/11 01:47:29;;;;;;;;;;;;;;;12.03;92.23;95346.53;11250664;26;19937;-73
2024/04/11 01:52:30;;;;;;;;;;;;;;;11.86;94.31;95345.91;11249315;26;20016;-73
2024/04/11 01:57:30;;;;;;;;;;;;;;;11.72;98.18;95346.44;11253961;26;19929;-73
2024/04/11 02:02:30;;;;;;;;;;;;;;;11.67;98.66;95348.31;11258962;26;19929;-74
2024/04/11 02:07:30;;;;;;;;;;;;;;;11.65;100.00;95347.75;11260040;26;20340;-73
2024/04/11 02:12:31;;;;;;;;;;;;;;;11.74;100.00;95346.16;11255929;26;19972;-73
2024/04/11 02:17:32;;;;;;;;;;;;;;;11.54;100.00;95345.03;11255876;26;19936;-73
2024/04/11 02:22:33;;;;;;;;;;;;;;;11.54;100.00;95358.50;11257547;26;19936;-73
2024/04/11 02:27:34;;;;;;;;;;;;;;;11.60;100.00;95356.63;11255550;26;20400;-73
2024/04/11 02:32:34;;;;;;;;;;;;;;;11.58;100.00;95364.16;11256964;26;20336;-73
2024/04/11 02:37:34;;;;;;;;;;;;;;;11.52;100.00;95362.53;11256995;26;19937;-73
2024/04/11 02:42:37;;;;;;;;;;;;;;;11.50;100.00;95373.56;11349915;26;19934;-74
2024/04/11 02:47:38;;;;;;;;;;;;;;;11.39;100.00;95375.38;11377120;26;19927;-73
2024/04/11 02:52:40;;;;;;;;;;;;;;;11.16;100.00;95371.22;11409822;26;20141;-73
2024/04/11 02:57:42;;;;;;;;;;;;;;;11.08;100.00;95380.59;11408465;26;19928;-73
2024/04/11 03:02:42;;;;;;;;;;;;;;;10.98;100.00;95380.56;11391902;26;19928;-73
2024/04/11 03:07:42;;;;;;;;;;;;;;;10.96;100.00;95387.25;11375402;26;20316;-73
2024/04/11 03:12:43;;;;;;;;;;;;;;;10.85;100.00;95392.56;11408318;26;19941;-73
2024/04/11 03:17:43;;;;;;;;;;;;;;;10.76;100.00;95392.22;11382799;26;19934;-73
2024/04/11 03:22:44;;;;;;;;;;;;;;;10.61;100.00;95402.88;11408043;26;19931;-72
2024/04/11 03:27:44;;;;;;;;;;;;;;;10.74;100.00;95407.00;11375211;26;19931;-74
2024/04/11 03:32:44;;;;;;;;;;;;;;;10.70;100.00;95417.47;11408608;26;20354;-74
2024/04/11 03:37:45;;;;;;;;;;;;;;;10.60;100.00;95423.56;11407380;26;19936;-74
2024/04/11 03:42:46;;;;;;;;;;;;;;;10.57;100.00;95425.94;11405498;26;19927;-74
2024/04/11 03:47:46;;;;;;;;;;;;;;;10.58;100.00;95431.06;11374075;26;19928;-74
2024/04/11 03:52:46;;;;;;;;;;;;;;;10.56;100.00;95437.75;11362530;26;19934;-74
2024/04/11 03:57:47;;;;;;;;;;;;;;;10.59;100.00;95443.44;11407219;26;20361;-73
2024/04/11 04:02:47;;;;;;;;;;;;;;;10.53;100.00;95441.75;11406554;26;19927;-73
2024/04/11 04:07:48;;;;;;;;;;;;;;;10.52;100.00;95442.03;11374338;26;19939;-73
2024/04/11 04:12:48;;;;;;;;;;;;;;;10.39;100.00;95449.44;11360526;26;19934;-73
2024/04/11 04:17:51;;;;;;;;;;;;;;;10.35;100.00;95451.00;11373628;26;19927;-74
2024/04/11 04:22:51;;;;;;;;;;;;;;;10.37;100.00;95450.78;11405467;26;19927;-73
2024/04/11 04:27:52;;;;;;;;;;;;;;;10.42;100.00;95450.78;11405451;26;19935;-74
2024/04/11 04:32:52;;;;;;;;;;;;;;;10.66;100.00;95437.88;11405438;26;19995;-74
2024/04/11 04:37:53;;;;;;;;;;;;;;;10.67;100.00;95452.91;11405050;26;19927;-73
2024/04/11 04:42:55;;;;;;;;;;;;;;;10.75;100.00;95452.44;11239335;26;19984;-77
2024/04/11 04:47:58;;;;;;;;;;;;;;;10.86;100.00;95456.03;11251310;26;20382;-75
2024/04/11 04:52:59;;;;;;;;;;;;;;;11.10;100.00;95464.53;11233029;26;19954;-76
2024/04/11 04:58:00;;;;;;;;;;;;;;;11.34;100.00;95464.16;11250541;26;19928;-76
2024/04/11 05:03:08;;;;;;;;;;;;;;;11.61;100.00;95464.06;11252311;26;19928;-76
2024/04/11 05:08:11;;;;;;;;;;;;;;;12.09;100.00;95477.47;11250705;26;20744;-71
2024/04/11 05:13:11;;;;;;;;;;;;;;;12.62;100.00;95476.53;11252558;26;19943;-70
2024/04/11 05:18:12;;;;;;;;;;;;;;;13.07;100.00;95484.94;11254072;26;20276;-71
2024/04/11 05:23:14;;;;;;;;;;;;;;;13.65;100.00;95481.91;11251236;26;20532;-69
2024/04/11 05:28:16;;;;;;;;;;;;;;;14.24;98.65;95482.25;11221404;26;19960;-71
2024/04/11 05:33:16;;;;;;;;;;;;;;;14.77;90.92;95492.53;11251469;26;20241;-70
2024/04/11 05:38:17;;;;;;;;;;;;;;;15.40;88.09;95496.38;11224011;26;19929;-70
2024/04/11 05:43:19;;;;;;;;;;;;;;;15.93;79.68;95498.31;11247804;26;19929;-71
2024/04/11 05:48:22;;;;;;;;;;;;;;;16.36;77.66;95490.19;11248676;26;21881;-70
2024/04/11 05:53:22;;;;;;;;;;;;;;;16.95;67.68;95493.47;11250870;26;19932;-69
2024/04/11 05:58:24;;;;;;;;;;;;;;;17.92;60.62;95496.47;11248515;26;20237;-70
2024/04/11 06:03:24;;;;;;;;;;;;;;;18.48;58.87;95499.16;11248534;26;19941;-69
2024/04/11 06:08:25;;;;;;;;;;;;;;;19.69;52.46;95505.94;11251204;26;19929;-70
2024/04/11 06:13:27;;;;;;;;;;;;;;;20.90;48.38;95505.88;11250970;26;20347;-70
2024/04/11 06:18:30;;;;;;;;;;;;;;;21.24;47.40;95512.47;11250683;26;19928;-70
2024/04/11 06:23:31;;;;;;;;;;;;;;;19.80;49.98;95522.84;11220715;26;20368;-70
2024/04/11 06:28:33;;;;;;;;;;;;;;;19.77;51.82;95528.88;11251445;26;20000;-70
2024/04/11 06:33:34;;;;;;;;;;;;;;;20.71;49.58;95517.09;11236907;26;19940;-69
2024/04/11 06:38:34;;;;;;;;;;;;;;;20.73;50.06;95521.13;11228045;26;19940;-69
2024/04/11 06:43:35;;;;;;;;;;;;;;;20.00;51.10;95537.88;11369678;26;19939;-69
2024/04/11 06:48:35;;;;;;;;;;;;;;;20.77;48.54;95537.69;11409210;26;19939;-69
2024/04/11 06:53:36;;;;;;;;;;;;;;;21.75;44.29;95540.13;11407582;26;19927;-69
2024/04/11 06:58:39;;;;;;;;;;;;;;;22.12;42.68;95543.25;11408693;26;19999;-70
2024/04/11 07:03:40;;;;;;;;;;;;;;;22.24;43.22;95543.34;11371723;26;19962;-69
2024/04/11 07:08:42;;;;;;;;;;;;;;;22.45;40.17;95542.66;11408683;26;19935;-69
2024/04/11 07:13:43;;;;;;;;;;;;;;;22.76;41.16;95544.25;11408594;26;19939;-69
2024/04/11 07:18:54;;;;;;;;;;;;;;;23.16;41.98;95550.16;11406872;26;19927;-69
2024/04/11 07:23:55;;;;;;;;;;;;;;;24.82;36.20;95549.59;11374566;26;19931;-69
2024/04/11 07:28:56;;;;;;;;;;;;;;;27.02;32.53;95547.28;11406787;26;19931;-69
2024/04/11 07:33:58;;;;;;;;;;;;;;;28.93;30.44;95548.16;11407628;26;19937;-70
2024/04/11 07:38:59;;;;;;;;;;;;;;;30.13;27.89;95554.09;11397768;26;19939;-70
2024/04/11 07:44:06;;;;;;;;;;;;;;;31.63;27.56;95541.75;11401278;26;20420;-69
2024/04/11 07:49:09;;;;;;;;;;;;;;;32.32;25.85;95542.75;11407307;26;19934;-69
2024/04/11 07:54:13;;;;;;;;;;;;;;;32.91;24.33;95538.84;11406407;26;20250;-69
2024/04/11 07:59:13;;;;;;;;;;;;;;;32.62;24.06;95541.59;11373135;26;19936;-69
2024/04/11 08:04:13;;;;;;;;;;;;;;;33.07;23.47;95544.78;11406150;26;19927;-69
2024/04/11 08:09:13;;;;;;;;;;;;;;;32.66;22.88;95545.19;11406085;26;19927;-69
2024/04/11 08:14:14;;;;;;;;;;;;;;;32.65;23.92;95547.16;11406805;26;19927;-70
2024/04/11 08:19:16;;;;;;;;;;;;;;;32.78;23.25;95555.13;11405959;26;19947;-69
2024/04/11 08:24:16;;;;;;;;;;;;;;;34.28;22.64;95557.91;11405974;26;19942;-69
2024/04/11 08:29:17;;;;;;;;;;;;;;;35.33;20.84;95546.75;11405875;26;19938;-69
2024/04/11 08:34:20;;;;;;;;;;;;;;;35.59;20.36;95551.63;11406280;26;19931;-70
2024/04/11 08:39:22;;;;;;;;;;;;;;;35.63;18.53;95548.81;11404252;26;20370;-69
2024/04/11 08:44:23;;;;;;;;;;;;;;;35.32;21.04;95550.75;11405456;26;19932;-70
2024/04/11 08:49:23;;;;;;;;;;;;;;;34.05;20.63;95559.25;11404696;26;19977;-70
2024/04/11 08:54:24;;;;;;;;;;;;;;;31.43;21.02;95558.69;11405499;26;19967;-70
2024/04/11 08:59:25;;;;;;;;;;;;;;;30.18;22.41;95559.25;11403302;26;20361;-69
2024/04/11 09:04:25;;;;;;;;;;;;;;;31.36;19.78;95553.13;11396463;26;20021;-68
2024/04/11 09:09:25;;;;;;;;;;;;;;;32.23;20.59;95547.94;11393098;26;19928;-69
2024/04/11 09:14:26;;;;;;;;;;;;;;;31.92;19.77;95539.09;11371946;26;20341;-69
2024/04/11 09:19:26;;;;;;;;;;;;;;;30.13;20.89;95543.00;11402413;26;19927;-69
2024/04/11 09:24:28;;;;;;;;;;;;;;;29.66;19.88;95546.00;11401863;26;20045;-69
2024/04/11 09:29:29;;;;;;;;;;;;;;;28.97;19.92;95554.56;11400545;26;19928;-69
2024/04/11 09:34:30;;;;;;;;;;;;;;;28.53;21.29;95547.50;11404676;26;19927;-69
2024/04/11 09:39:45;;;;;;;;;;;;;;;28.30;20.04;95556.59;11369255;26;20263;-69
2024/04/11 09:44:48;;;;;;;;;;;;;;;28.08;19.66;95549.88;11370048;26;19936;-69
2024/04/11 09:49:53;;;;;;;;;;;;;;;28.54;20.22;95548.31;11403423;26;19999;-71
2024/04/11 09:54:55;;;;;;;;;;;;;;;29.26;20.71;95541.94;11390051;26;19939;-69
2024/04/11 09:59:55;;;;;;;;;;;;;;;31.85;17.16;95534.28;11400058;26;19935;-69
2024/04/11 10:04:56;;;;;;;;;;;;;;;33.36;16.19;95526.03;11401059;26;19927;-69
2024/04/11 10:09:59;;;;;;;;;;;;;;;33.05;16.20;95531.25;11401337;26;19927;-70
2024/04/11 10:15:02;;;;;;;;;;;;;;;34.32;16.05;95530.81;11401577;26;20296;-69
2024/04/11 10:20:10;;;;;;;;;;;;;;;35.91;14.92;95532.91;11406240;26;19927;-68
2024/04/11 10:25:17;;;;;;;;;;;;;;;37.90;14.40;95525.59;11409391;26;19931;-70
2024/04/11 10:30:18;;;;;;;;;;;;;;;39.33;12.16;95527.47;11408951;26;19928;-70
2024/04/11 10:35:28;;;;;;;;;;;;;;;40.32;12.16;95511.72;11372178;26;19933;-70
2024/04/11 10:40:32;;;;;;;;;;;;;;;40.49;12.52;95520.09;11401581;26;20313;-69
2024/04/11 10:45:34;;;;;;;;;;;;;;;40.63;13.18;95516.03;11407417;26;20645;-70
2024/04/11 10:50:35;;;;;;;;;;;;;;;40.66;12.16;95510.25;11408637;26;20351;-71
2024/04/11 10:55:35;;;;;;;;;;;;;;;40.43;12.27;95519.06;11408190;26;19927;-70
2024/04/11 11:05:58;;;;;;;;;;;;;;;41.63;10.99;95508.97;11408529;26;19931;-70
2024/04/11 11:10:59;;;;;;;;;;;;;;;40.03;11.54;95494.13;11407932;26;19938;-70
2024/04/11 11:15:59;;;;;;;;;;;;;;;39.88;12.50;95496.59;11408564;26;19939;-70
2024/04/11 11:21:00;;;;;;;;;;;;;;;38.05;14.38;95505.63;11407099;26;19936;-70
2024/04/11 11:26:01;;;;;;;;;;;;;;;34.77;15.23;95504.94;11406955;26;19942;-69
2024/04/11 11:31:01;;;;;;;;;;;;;;;31.78;19.16;95501.72;11406868;26;19936;-69
2024/04/11 11:36:04;;;;;;;;;;;;;;;30.43;18.67;95512.38;11375568;26;21676;-68
2024/04/11 11:41:04;;;;;;;;;;;;;;;28.43;20.37;95499.16;11406962;26;19928;-68
2024/04/11 11:46:17;;;;;;;;;;;;;;;27.74;21.16;95497.16;11407034;26;20008;-68
2024/04/11 11:51:19;;;;;;;;;;;;;;;26.95;21.58;95495.50;11408072;26;19931;-69
2024/04/11 11:56:22;;;;;;;;;;;;;;;26.69;21.83;95487.78;11406334;26;20366;-69
2024/04/11 12:01:29;;;;;;;;;;;;;;;26.48;22.67;95488.09;11353514;26;19990;-68
2024/04/11 12:06:35;;;;;;;;;;;;;;;26.13;24.10;95481.34;11404543;26;20429;-69
2024/04/11 12:12:20;;;;;;;;;;;;;;;26.06;23.55;95487.47;11406141;26;19927;-69
2024/04/11 12:17:10;;;;;;;;;;;;;;;26.10;25.78;95476.56;11402466;26;19932;-69
2024/04/11 12:22:11;;;;;;;;;;;;;;;25.96;24.39;95462.41;11405908;26;19942;-69
2024/04/11 12:27:13;;;;;;;;;;;;;;;25.66;24.98;95482.88;11406558;26;19935;-69
2024/04/11 12:32:17;;;;;;;;;;;;;;;25.36;25.07;95469.47;11404781;26;20247;-69
2024/04/11 12:37:24;;;;;;;;;;;;;;;25.20;25.20;95468.59;11405043;26;20342;-69
2024/04/11 12:42:29;;;;;;;;;;;;;;;25.05;26.36;95470.16;11372681;26;19927;-69
2024/04/11 12:47:39;;;;;;;;;;;;;;;25.00;26.72;95462.91;11402978;26;20300;-70
2024/04/11 12:52:49;;;;;;;;;;;;;;;24.76;26.77;95471.25;11402458;26;19951;-69
2024/04/11 12:57:51;;;;;;;;;;;;;;;24.64;26.86;95472.84;11403610;26;19928;-69
2024/04/11 13:03:06;;;;;;;;;;;;;;;24.55;27.08;95478.44;11403991;26;20320;-69
2024/04/11 13:08:07;;;;;;;;;;;;;;;24.40;27.04;95468.94;11404434;26;20295;-69
2024/04/11 13:13:12;;;;;;;;;;;;;;;24.44;27.48;95468.28;11404633;26;19947;-69
2024/04/11 13:18:12;;;;;;;;;;;;;;;24.35;27.36;95482.13;11403445;26;19938;-68
2024/04/11 13:23:21;;;;;;;;;;;;;;;24.17;28.32;95470.56;11403631;26;19934;-69
2024/04/11 13:28:28;;;;;;;;;;;;;;;24.19;27.69;95473.75;11400129;26;20630;-69
2024/04/11 13:33:30;;;;;;;;;;;;;;;24.11;27.86;95480.16;11401059;26;20373;-69
2024/04/11 13:38:37;;;;;;;;;;;;;;;23.88;27.81;95475.13;11403545;26;20457;-70
2024/04/11 13:43:37;;;;;;;;;;;;;;;23.78;28.38;95470.00;11403048;26;19939;-69
2024/04/11 13:48:48;;;;;;;;;;;;;;;23.71;28.52;95465.88;11402730;26;19939;-69
2024/04/11 13:53:56;;;;;;;;;;;;;;;23.70;28.41;95460.75;11402441;26;19934;-69
2024/04/11 13:59:07;;;;;;;;;;;;;;;23.39;29.23;95470.25;11402348;26;19939;-71
2024/04/11 14:04:15;;;;;;;;;;;;;;;23.41;29.35;95472.66;11378199;26;19928;-69
2024/04/11 14:09:19;;;;;;;;;;;;;;;23.34;29.66;95471.25;11371254;26;20317;-69
2024/04/11 14:14:20;;;;;;;;;;;;;;;23.35;30.08;95474.81;11342958;26;20358;-68
2024/04/11 14:19:38;;;;;;;;;;;;;;;23.22;30.19;95471.22;11367340;26;19936;-68
2024/04/11 14:24:58;;;;;;;;;;;;;;;23.21;30.12;95475.09;11369507;26;20859;-69
2024/04/11 14:30:00;;;;;;;;;;;;;;;23.08;30.42;95474.22;11370279;26;19936;-68
2024/04/11 14:40:04;;;;;;;;;;;;;;;22.92;31.53;95474.00;11368706;26;19935;-68
2024/04/11 14:45:06;;;;;;;;;;;;;;;22.80;31.10;95480.25;11376151;26;20371;-68
2024/04/11 14:50:06;;;;;;;;;;;;;;;22.77;31.32;95482.84;11395928;26;20236;-71
2024/04/11 14:55:09;;;;;;;;;;;;;;;22.65;31.94;95475.34;11400268;26;19935;-70
2024/04/11 15:05:34;;;;;;;;;;;;;;;22.54;31.40;95480.41;11402037;26;19940;-70
2024/04/11 15:10:42;;;;;;;;;;;;;;;22.46;31.69;95481.25;11407384;26;19951;-69
2024/04/11 15:15:56;;;;;;;;;;;;;;;22.31;31.42;95483.41;11405720;26;20223;-68
2024/04/11 15:21:15;;;;;;;;;;;;;;;22.29;31.74;95490.34;11374850;26;19933;-68
2024/04/11 15:26:16;;;;;;;;;;;;;;;22.22;31.91;95490.84;11407227;26;19959;-67
2024/04/11 15:31:29;;;;;;;;;;;;;;;22.14;32.27;95494.44;11406954;26;19933;-69
2024/04/11 15:36:34;;;;;;;;;;;;;;;22.04;32.03;95500.28;11407404;26;19947;-69
2024/04/11 15:41:39;;;;;;;;;;;;;;;21.91;32.16;95508.38;11407202;26;19934;-69
2024/04/11 15:46:39;;;;;;;;;;;;;;;21.79;32.42;95506.28;11406584;26;19939;-69
2024/04/11 15:51:40;;;;;;;;;;;;;;;21.75;33.04;95512.75;11406329;26;19935;-69
2024/04/11 15:56:43;;;;;;;;;;;;;;;21.76;33.03;95508.91;11407042;26;20008;-69
2024/04/11 16:01:44;;;;;;;;;;;;;;;21.60;33.68;95517.63;11406222;26;19928;-69
2024/04/11 16:06:47;;;;;;;;;;;;;;;21.48;33.78;95529.19;11407182;26;19927;-69
2024/04/11 16:11:47;;;;;;;;;;;;;;;21.36;33.97;95517.28;11405677;26;19935;-69
2024/04/11 16:16:51;;;;;;;;;;;;;;;21.30;34.50;95528.38;11405299;26;20395;-69
2024/04/11 16:21:52;;;;;;;;;;;;;;;21.19;34.64;95534.50;11402201;26;19929;-68
2024/04/11 16:26:52;;;;;;;;;;;;;;;21.00;35.16;95536.44;11401121;26;19927;-68
2024/04/11 16:31:56;;;;;;;;;;;;;;;20.92;35.56;95545.41;11404484;26;20350;-69
2024/04/11 16:36:56;;;;;;;;;;;;;;;20.79;36.03;95543.63;11372799;26;19964;-69
2024/04/11 16:42:14;;;;;;;;;;;;;;;20.71;36.31;95550.69;11402503;26;19967;-69
2024/04/11 16:47:15;;;;;;;;;;;;;;;20.58;36.59;95557.03;11352699;26;20356;-69
2024/04/11 16:52:16;;;;;;;;;;;;;;;20.51;37.22;95554.75;11401503;26;19927;-69
2024/04/11 16:57:17;;;;;;;;;;;;;;;20.38;37.47;95561.16;11405646;26;19927;-69
2024/04/11 17:02:21;;;;;;;;;;;;;;;20.30;38.59;95563.53;11404814;26;20374;-69
2024/04/11 17:07:24;;;;;;;;;;;;;;;20.08;38.66;95572.59;11393040;26;20035;-71
2024/04/11 17:12:30;;;;;;;;;;;;;;;19.96;39.09;95573.16;11401261;26;20331;-71
2024/04/11 17:23:05;;;;;;;;;;;;;;;19.78;40.10;95582.34;11404302;26;19934;-71
2024/04/11 17:28:00;;;;;;;;;;;;;;;19.70;39.80;95594.00;11381729;26;19927;-71
2024/04/11 17:33:00;;;;;;;;;;;;;;;19.61;40.15;95602.91;11370396;26;19934;-71
2024/04/11 17:38:09;;;;;;;;;;;;;;;19.52;40.95;95607.50;11404489;26;20363;-72
2024/04/11 17:43:17;;;;;;;;;;;;;;;19.46;42.40;95619.63;11403086;26;19927;-70
2024/04/11 17:48:17;;;;;;;;;;;;;;;19.27;41.42;95622.50;11359337;26;19927;-72
2024/04/11 17:53:20;;;;;;;;;;;;;;;19.26;42.41;95618.97;11403358;26;20319;-72
2024/04/11 17:58:22;;;;;;;;;;;;;;;19.16;41.89;95629.28;11402338;26;19943;-72
2024/04/11 18:03:22;;;;;;;;;;;;;;;19.13;42.19;95649.78;11401564;26;19931;-72
2024/04/11 18:08:22;;;;;;;;;;;;;;;19.06;42.24;95646.66;11368260;26;19938;-72
2024/04/11 18:13:22;;;;;;;;;;;;;;;18.95;42.69;95641.44;11376518;26;19979;-73
2024/04/11 18:18:28;;;;;;;;;;;;;;;18.92;43.54;95650.22;11402334;26;19994;-73
2024/04/11 18:23:28;;;;;;;;;;;;;;;18.86;44.40;95654.13;11400216;26;20331;-71
2024/04/11 18:28:33;;;;;;;;;;;;;;;18.70;45.63;95660.97;11396134;26;19927;-74
2024/04/11 18:33:34;;;;;;;;;;;;;;;18.57;46.61;95677.03;11340040;26;20263;-73
2024/04/11 18:38:34;;;;;;;;;;;;;;;18.45;48.18;95674.78;11336339;26;20227;-73
2024/04/11 18:43:36;;;;;;;;;;;;;;;18.32;47.99;95680.19;11379432;26;19928;-72
2024/04/11 18:48:42;;;;;;;;;;;;;;;18.02;50.04;95679.63;11369561;26;19935;-73
2024/04/11 18:53:43;;;;;;;;;;;;;;;17.71;51.31;95688.25;11368617;26;19927;-74
2024/04/11 18:58:43;;;;;;;;;;;;;;;17.45;53.70;95693.22;11373416;26;19928;-74
2024/04/11 19:03:44;;;;;;;;;;;;;;;17.27;54.64;95705.69;11344284;26;19934;-73
2024/04/11 19:08:48;;;;;;;;;;;;;;;17.10;55.51;95706.19;11366968;26;19936;-74
2024/04/11 19:13:54;;;;;;;;;;;;;;;16.94;57.06;95711.81;11392702;26;19934;-73
2024/04/11 19:18:56;;;;;;;;;;;;;;;16.70;59.54;95706.34;11384405;26;19996;-77
2024/04/11 19:24:14;;;;;;;;;;;;;;;16.64;59.38;95710.22;11380867;26;20206;-77
2024/04/11 19:29:22;;;;;;;;;;;;;;;16.45;60.28;95712.84;11345698;26;19951;-75
2024/04/11 19:34:25;;;;;;;;;;;;;;;16.29;62.49;95712.97;11375823;26;19932;-75
2024/04/11 19:39:28;;;;;;;;;;;;;;;16.25;62.69;95711.13;11344927;26;20392;-71
2024/04/11 19:44:30;;;;;;;;;;;;;;;16.20;65.25;95711.97;11378306;26;19934;-69
2024/04/11 19:49:34;;;;;;;;;;;;;;;16.16;65.73;95713.63;11342621;26;20247;-78
2024/04/11 19:54:44;;;;;;;;;;;;;;;16.22;70.33;95721.44;11373946;26;19927;-77
2024/04/11 19:59:44;;;;;;;;;;;;;;;16.11;69.22;95722.63;11385831;26;19928;-78
2024/04/11 20:04:44;;;;;;;;;;;;;;;15.97;71.15;95725.16;11372801;26;19928;-73
2024/04/11 20:09:49;;;;;;;;;;;;;;;15.91;71.50;95725.50;11367597;26;19992;-73
2024/04/11 20:14:50;;;;;;;;;;;;;;;15.89;77.74;95726.59;11376828;26;20327;-73
2024/04/11 20:19:58;;;;;;;;;;;;;;;15.70;74.82;95733.75;11374156;26;19931;-74
2024/04/11 20:24:59;;;;;;;;;;;;;;;15.74;79.75;95726.69;11372841;26;19927;-75
2024/04/11 20:29:59;;;;;;;;;;;;;;;15.66;79.83;95729.97;11371215;26;19943;-77
2024/04/11 20:35:22;;;;;;;;;;;;;;;15.67;80.42;95734.28;11373787;26;19932;-74
2024/04/11 20:40:30;;;;;;;;;;;;;;;15.64;86.07;95735.69;11345572;26;20347;-74
2024/04/11 20:45:32;;;;;;;;;;;;;;;15.39;83.87;95733.91;11372264;26;20629;-75
2024/04/11 21:38:23;;;;;;;;;;;;;;;14.59;90.26;95750.97;11375771;26;19927;-70
2024/04/11 21:43:25;;;;;;;;;;;;;;;14.51;89.06;95753.13;11325080;26;19928;-70
2024/04/11 21:48:29;;;;;;;;;;;;;;;14.43;89.95;95756.38;11374198;26;19934;-70
2024/04/11 21:53:33;;;;;;;;;;;;;;;14.51;91.89;95761.25;11369316;26;19928;-70
2024/04/11 21:58:34;;;;;;;;;;;;;;;14.50;90.97;95762.31;11366378;26;20533;-68
2024/04/11 22:03:39;;;;;;;;;;;;;;;14.47;90.90;95751.22;11374023;26;19939;-69
2024/04/11 22:08:44;;;;;;;;;;;;;;;14.35;91.39;95771.25;11371215;26;19935;-70
2024/04/11 22:13:47;;;;;;;;;;;;;;;14.47;95.82;95775.56;11362372;26;20262;-70
2024/04/11 22:18:48;;;;;;;;;;;;;;;14.30;93.70;95771.28;11377271;26;19928;-70
2024/04/11 22:23:49;;;;;;;;;;;;;;;14.23;93.20;95772.63;11368566;26;19927;-69
2024/04/11 22:28:53;;;;;;;;;;;;;;;14.27;93.33;95766.38;11378336;26;19997;-70
2024/04/11 22:33:54;;;;;;;;;;;;;;;14.26;91.76;95774.78;11344846;26;19947;-70
2024/04/11 22:38:55;;;;;;;;;;;;;;;14.30;93.48;95762.34;11372679;26;19946;-71
2024/04/11 22:43:57;;;;;;;;;;;;;;;14.22;90.97;95765.59;11368537;26;19927;-70
2024/04/11 22:48:58;;;;;;;;;;;;;;;14.26;92.24;95763.97;11346371;26;20342;-73
2024/04/11 22:53:58;;;;;;;;;;;;;;;14.10;99.80;95774.78;11401044;26;20349;-74
2024/04/11 22:59:19;;;;;;;;;;;;;;;13.82;100.00;95766.09;11376037;26;19939;-74
2024/04/11 23:04:30;;;;;;;;;;;;;;;13.64;100.00;95767.41;11386525;26;20279;-72
2024/04/11 23:09:34;;;;;;;;;;;;;;;13.60;100.00;95779.03;11383016;26;19927;-73
2024/04/11 23:14:37;;;;;;;;;;;;;;;13.55;100.00;95771.75;11396225;26;19963;-73
2024/04/11 23:19:58;;;;;;;;;;;;;;;13.65;100.00;95781.75;11404384;26;19927;-73
2024/04/11 23:25:10;;;;;;;;;;;;;;;13.41;100.00;95773.28;11405959;26;19939;-72
2024/04/11 23:30:10;;;;;;;;;;;;;;;13.46;100.00;95782.22;11411297;26;20007;-73
2024/04/11 23:35:18;;;;;;;;;;;;;;;13.37;100.00;95777.59;11409574;26;19957;-73
2024/04/11 23:40:25;;;;;;;;;;;;;;;13.25;100.00;95780.50;11393651;26;19927;-73
2024/04/11 23:45:25;;;;;;;;;;;;;;;13.31;100.00;95776.75;11408477;26;19939;-73
2024/04/11 23:50:38;;;;;;;;;;;;;;;13.22;100.00;95781.84;11408684;26;20251;-72
2024/04/11 23:55:38;;;;;;;;;;;;;;;12.96;100.00;95781.75;11409073;26;20339;-73
